sensor_id;sensor_type;location;lat;lon;timestamp;P1;durP1;ratioP1;P2;durP2;ratioP2
56893;SDS011;43392;50.078;13.704;2023-08-17T00:00:37;12.30;;;8.95;;
56893;SDS011;43392;50.078;13.704;2023-08-17T00:03:04;15.70;;;9.52;;
56893;SDS011;43392;50.078;13.704;2023-08-17T00:05:30;14.55;;;9.50;;
56893;SDS011;43392;50.078;13.704;2023-08-17T00:07:59;13.27;;;9.07;;
56893;SDS011;43392;50.078;13.704;2023-08-17T00:10:26;12.13;;;8.90;;
56893;SDS011;43392;50.078;13.704;2023-08-17T00:12:54;12.63;;;8.90;;
56893;SDS011;43392;50.078;13.704;2023-08-17T00:15:21;13.27;;;9.20;;
56893;SDS011;43392;50.078;13.704;2023-08-17T00:17:48;13.93;;;9.38;;
56893;SDS011;43392;50.078;13.704;2023-08-17T00:20:15;12.35;;;9.18;;
56893;SDS011;43392;50.078;13.704;2023-08-17T00:22:42;11.95;;;9.95;;
56893;SDS011;43392;50.078;13.704;2023-08-17T00:25:09;13.60;;;8.73;;
56893;SDS011;43392;50.078;13.704;2023-08-17T00:27:35;10.95;;;8.52;;
56893;SDS011;43392;50.078;13.704;2023-08-17T00:30:04;12.18;;;8.93;;
56893;SDS011;43392;50.078;13.704;2023-08-17T00:32:31;13.57;;;9.13;;
56893;SDS011;43392;50.078;13.704;2023-08-17T00:34:58;12.02;;;8.95;;
56893;SDS011;43392;50.078;13.704;2023-08-17T00:37:24;12.23;;;8.50;;
56893;SDS011;43392;50.078;13.704;2023-08-17T00:39:51;13.18;;;9.20;;
56893;SDS011;43392;50.078;13.704;2023-08-17T00:42:17;12.23;;;8.75;;
56893;SDS011;43392;50.078;13.704;2023-08-17T00:44:44;11.98;;;9.43;;
56893;SDS011;43392;50.078;13.704;2023-08-17T00:47:12;12.60;;;9.70;;
56893;SDS011;43392;50.078;13.704;2023-08-17T00:49:38;13.68;;;9.85;;
56893;SDS011;43392;50.078;13.704;2023-08-17T00:52:05;15.30;;;10.00;;
56893;SDS011;43392;50.078;13.704;2023-08-17T00:54:32;14.32;;;9.52;;
56893;SDS011;43392;50.078;13.704;2023-08-17T00:56:59;15.27;;;8.95;;
56893;SDS011;43392;50.078;13.704;2023-08-17T00:59:28;12.80;;;9.50;;
56893;SDS011;43392;50.078;13.704;2023-08-17T01:01:55;15.15;;;10.27;;
56893;SDS011;43392;50.078;13.704;2023-08-17T01:04:23;12.77;;;9.32;;
56893;SDS011;43392;50.078;13.704;2023-08-17T01:06:50;15.15;;;9.90;;
56893;SDS011;43392;50.078;13.704;2023-08-17T01:09:16;13.27;;;9.10;;
56893;SDS011;43392;50.078;13.704;2023-08-17T01:11:45;18.42;;;9.77;;
56893;SDS011;43392;50.078;13.704;2023-08-17T01:14:17;15.73;;;9.57;;
56893;SDS011;43392;50.078;13.704;2023-08-17T01:16:52;15.38;;;9.13;;
56893;SDS011;43392;50.078;13.704;2023-08-17T01:19:28;17.15;;;10.02;;
56893;SDS011;43392;50.078;13.704;2023-08-17T01:21:56;14.98;;;10.27;;
56893;SDS011;43392;50.078;13.704;2023-08-17T01:24:30;14.50;;;10.35;;
56893;SDS011;43392;50.078;13.704;2023-08-17T01:26:57;16.35;;;9.63;;
56893;SDS011;43392;50.078;13.704;2023-08-17T01:29:23;12.38;;;9.18;;
56893;SDS011;43392;50.078;13.704;2023-08-17T01:31:52;14.10;;;10.50;;
56893;SDS011;43392;50.078;13.704;2023-08-17T01:34:26;12.65;;;9.57;;
56893;SDS011;43392;50.078;13.704;2023-08-17T01:36:56;12.82;;;9.70;;
56893;SDS011;43392;50.078;13.704;2023-08-17T01:39:27;13.80;;;9.43;;
56893;SDS011;43392;50.078;13.704;2023-08-17T01:42:01;13.52;;;9.38;;
56893;SDS011;43392;50.078;13.704;2023-08-17T01:44:27;13.32;;;9.20;;
56893;SDS011;43392;50.078;13.704;2023-08-17T01:46:54;14.45;;;9.27;;
56893;SDS011;43392;50.078;13.704;2023-08-17T01:49:21;14.98;;;10.38;;
56893;SDS011;43392;50.078;13.704;2023-08-17T01:51:48;16.70;;;11.10;;
56893;SDS011;43392;50.078;13.704;2023-08-17T01:54:14;15.52;;;9.80;;
56893;SDS011;43392;50.078;13.704;2023-08-17T01:56:42;12.60;;;10.18;;
56893;SDS011;43392;50.078;13.704;2023-08-17T01:59:09;14.45;;;10.13;;
56893;SDS011;43392;50.078;13.704;2023-08-17T02:01:35;12.20;;;9.57;;
56893;SDS011;43392;50.078;13.704;2023-08-17T02:04:03;16.83;;;10.82;;
56893;SDS011;43392;50.078;13.704;2023-08-17T02:06:29;13.88;;;9.75;;
56893;SDS011;43392;50.078;13.704;2023-08-17T02:08:56;18.70;;;10.43;;
56893;SDS011;43392;50.078;13.704;2023-08-17T02:11:24;13.27;;;10.13;;
56893;SDS011;43392;50.078;13.704;2023-08-17T02:13:53;17.00;;;11.07;;
56893;SDS011;43392;50.078;13.704;2023-08-17T02:16:20;16.65;;;10.40;;
56893;SDS011;43392;50.078;13.704;2023-08-17T02:18:46;15.68;;;11.05;;
56893;SDS011;43392;50.078;13.704;2023-08-17T02:21:13;16.52;;;10.70;;
56893;SDS011;43392;50.078;13.704;2023-08-17T02:23:39;18.52;;;11.02;;
56893;SDS011;43392;50.078;13.704;2023-08-17T02:26:06;14.55;;;10.60;;
56893;SDS011;43392;50.078;13.704;2023-08-17T02:28:32;16.40;;;11.38;;
56893;SDS011;43392;50.078;13.704;2023-08-17T02:31:00;17.02;;;10.65;;
56893;SDS011;43392;50.078;13.704;2023-08-17T02:33:27;14.07;;;10.20;;
56893;SDS011;43392;50.078;13.704;2023-08-17T02:35:54;13.52;;;9.93;;
56893;SDS011;43392;50.078;13.704;2023-08-17T02:38:20;14.77;;;11.05;;
56893;SDS011;43392;50.078;13.704;2023-08-17T02:40:48;14.98;;;10.88;;
56893;SDS011;43392;50.078;13.704;2023-08-17T02:43:15;14.77;;;10.55;;
56893;SDS011;43392;50.078;13.704;2023-08-17T02:45:41;14.95;;;10.73;;
56893;SDS011;43392;50.078;13.704;2023-08-17T02:48:09;14.70;;;10.82;;
56893;SDS011;43392;50.078;13.704;2023-08-17T02:50:36;16.25;;;10.57;;
56893;SDS011;43392;50.078;13.704;2023-08-17T02:53:02;14.40;;;10.95;;
56893;SDS011;43392;50.078;13.704;2023-08-17T02:55:29;14.48;;;9.93;;
56893;SDS011;43392;50.078;13.704;2023-08-17T02:57:56;14.40;;;11.27;;
56893;SDS011;43392;50.078;13.704;2023-08-17T03:00:22;14.50;;;10.73;;
56893;SDS011;43392;50.078;13.704;2023-08-17T03:02:49;16.08;;;10.65;;
56893;SDS011;43392;50.078;13.704;2023-08-17T03:05:17;14.95;;;11.40;;
56893;SDS011;43392;50.078;13.704;2023-08-17T03:07:44;14.73;;;11.00;;
56893;SDS011;43392;50.078;13.704;2023-08-17T03:10:10;14.07;;;10.85;;
56893;SDS011;43392;50.078;13.704;2023-08-17T03:12:37;14.70;;;10.80;;
56893;SDS011;43392;50.078;13.704;2023-08-17T03:15:04;14.13;;;11.52;;
56893;SDS011;43392;50.078;13.704;2023-08-17T03:17:32;15.10;;;11.00;;
56893;SDS011;43392;50.078;13.704;2023-08-17T03:19:58;15.18;;;11.27;;
56893;SDS011;43392;50.078;13.704;2023-08-17T03:22:26;19.83;;;11.80;;
56893;SDS011;43392;50.078;13.704;2023-08-17T03:24:54;17.10;;;11.45;;
56893;SDS011;43392;50.078;13.704;2023-08-17T03:27:21;20.48;;;12.05;;
56893;SDS011;43392;50.078;13.704;2023-08-17T03:29:49;17.10;;;12.23;;
56893;SDS011;43392;50.078;13.704;2023-08-17T03:32:16;16.17;;;11.73;;
56893;SDS011;43392;50.078;13.704;2023-08-17T03:34:43;15.68;;;12.05;;
56893;SDS011;43392;50.078;13.704;2023-08-17T03:37:09;17.85;;;12.43;;
56893;SDS011;43392;50.078;13.704;2023-08-17T03:39:37;17.02;;;11.90;;
56893;SDS011;43392;50.078;13.704;2023-08-17T03:42:04;15.90;;;11.95;;
56893;SDS011;43392;50.078;13.704;2023-08-17T03:44:30;15.68;;;12.38;;
56893;SDS011;43392;50.078;13.704;2023-08-17T03:46:57;17.50;;;12.55;;
56893;SDS011;43392;50.078;13.704;2023-08-17T03:49:24;15.85;;;12.10;;
56893;SDS011;43392;50.078;13.704;2023-08-17T03:51:50;18.10;;;12.45;;
56893;SDS011;43392;50.078;13.704;2023-08-17T03:54:17;16.98;;;12.35;;
56893;SDS011;43392;50.078;13.704;2023-08-17T03:56:45;15.88;;;11.95;;
56893;SDS011;43392;50.078;13.704;2023-08-17T03:59:11;18.55;;;13.00;;
56893;SDS011;43392;50.078;13.704;2023-08-17T04:01:38;17.23;;;11.43;;
56893;SDS011;43392;50.078;13.704;2023-08-17T04:04:05;19.38;;;13.05;;
56893;SDS011;43392;50.078;13.704;2023-08-17T04:06:31;21.13;;;13.13;;
56893;SDS011;43392;50.078;13.704;2023-08-17T04:08:58;18.63;;;12.50;;
56893;SDS011;43392;50.078;13.704;2023-08-17T04:11:25;16.73;;;12.88;;
56893;SDS011;43392;50.078;13.704;2023-08-17T04:13:53;21.17;;;13.57;;
56893;SDS011;43392;50.078;13.704;2023-08-17T04:16:20;18.35;;;13.38;;
56893;SDS011;43392;50.078;13.704;2023-08-17T04:18:46;20.75;;;12.90;;
56893;SDS011;43392;50.078;13.704;2023-08-17T04:21:13;18.63;;;12.90;;
56893;SDS011;43392;50.078;13.704;2023-08-17T04:23:39;16.13;;;12.13;;
56893;SDS011;43392;50.078;13.704;2023-08-17T04:26:06;17.50;;;11.80;;
56893;SDS011;43392;50.078;13.704;2023-08-17T04:28:33;16.58;;;11.10;;
56893;SDS011;43392;50.078;13.704;2023-08-17T04:31:01;17.83;;;11.65;;
56893;SDS011;43392;50.078;13.704;2023-08-17T04:33:27;17.13;;;12.32;;
56893;SDS011;43392;50.078;13.704;2023-08-17T04:35:54;21.60;;;13.30;;
56893;SDS011;43392;50.078;13.704;2023-08-17T04:38:21;15.82;;;12.40;;
56893;SDS011;43392;50.078;13.704;2023-08-17T04:40:47;17.35;;;12.40;;
56893;SDS011;43392;50.078;13.704;2023-08-17T04:43:14;15.20;;;12.88;;
56893;SDS011;43392;50.078;13.704;2023-08-17T04:45:40;18.38;;;12.45;;
56893;SDS011;43392;50.078;13.704;2023-08-17T04:48:09;17.58;;;12.45;;
56893;SDS011;43392;50.078;13.704;2023-08-17T04:50:35;16.50;;;12.88;;
56893;SDS011;43392;50.078;13.704;2023-08-17T04:53:02;18.17;;;12.52;;
56893;SDS011;43392;50.078;13.704;2023-08-17T04:55:29;14.73;;;12.13;;
56893;SDS011;43392;50.078;13.704;2023-08-17T04:57:57;18.02;;;12.45;;
56893;SDS011;43392;50.078;13.704;2023-08-17T05:00:23;19.52;;;12.30;;
56893;SDS011;43392;50.078;13.704;2023-08-17T05:02:53;17.75;;;13.02;;
56893;SDS011;43392;50.078;13.704;2023-08-17T05:05:21;17.25;;;12.30;;
56893;SDS011;43392;50.078;13.704;2023-08-17T05:07:48;17.15;;;11.68;;
56893;SDS011;43392;50.078;13.704;2023-08-17T05:10:14;17.63;;;12.20;;
56893;SDS011;43392;50.078;13.704;2023-08-17T05:12:41;17.90;;;12.95;;
56893;SDS011;43392;50.078;13.704;2023-08-17T05:15:08;18.67;;;13.57;;
56893;SDS011;43392;50.078;13.704;2023-08-17T05:17:35;19.65;;;13.05;;
56893;SDS011;43392;50.078;13.704;2023-08-17T05:20:02;17.15;;;13.73;;
56893;SDS011;43392;50.078;13.704;2023-08-17T05:22:30;19.92;;;14.57;;
56893;SDS011;43392;50.078;13.704;2023-08-17T05:24:57;16.98;;;13.70;;
56893;SDS011;43392;50.078;13.704;2023-08-17T05:27:24;17.40;;;13.38;;
56893;SDS011;43392;50.078;13.704;2023-08-17T05:29:50;18.63;;;14.02;;
56893;SDS011;43392;50.078;13.704;2023-08-17T05:32:17;19.40;;;14.00;;
56893;SDS011;43392;50.078;13.704;2023-08-17T05:34:43;17.90;;;14.25;;
56893;SDS011;43392;50.078;13.704;2023-08-17T05:37:10;17.90;;;13.57;;
56893;SDS011;43392;50.078;13.704;2023-08-17T05:39:38;20.10;;;13.13;;
56893;SDS011;43392;50.078;13.704;2023-08-17T05:42:06;22.30;;;14.65;;
56893;SDS011;43392;50.078;13.704;2023-08-17T05:44:32;20.23;;;14.43;;
56893;SDS011;43392;50.078;13.704;2023-08-17T05:46:59;21.10;;;14.60;;
56893;SDS011;43392;50.078;13.704;2023-08-17T05:49:26;20.58;;;14.18;;
56893;SDS011;43392;50.078;13.704;2023-08-17T05:51:52;21.60;;;13.80;;
56893;SDS011;43392;50.078;13.704;2023-08-17T05:54:19;16.80;;;13.65;;
56893;SDS011;43392;50.078;13.704;2023-08-17T05:56:47;18.75;;;13.80;;
56893;SDS011;43392;50.078;13.704;2023-08-17T05:59:13;20.60;;;14.25;;
56893;SDS011;43392;50.078;13.704;2023-08-17T06:01:40;23.52;;;14.38;;
56893;SDS011;43392;50.078;13.704;2023-08-17T06:04:06;20.75;;;13.88;;
56893;SDS011;43392;50.078;13.704;2023-08-17T06:06:33;18.35;;;14.65;;
56893;SDS011;43392;50.078;13.704;2023-08-17T06:09:00;18.25;;;14.75;;
56893;SDS011;43392;50.078;13.704;2023-08-17T06:11:26;19.73;;;14.27;;
56893;SDS011;43392;50.078;13.704;2023-08-17T06:13:54;19.40;;;14.65;;
56893;SDS011;43392;50.078;13.704;2023-08-17T06:16:21;19.10;;;14.55;;
56893;SDS011;43392;50.078;13.704;2023-08-17T06:18:48;18.60;;;14.00;;
56893;SDS011;43392;50.078;13.704;2023-08-17T06:21:14;22.23;;;16.25;;
56893;SDS011;43392;50.078;13.704;2023-08-17T06:23:41;22.48;;;16.77;;
56893;SDS011;43392;50.078;13.704;2023-08-17T06:26:08;23.73;;;16.10;;
56893;SDS011;43392;50.078;13.704;2023-08-17T06:28:34;21.48;;;16.73;;
56893;SDS011;43392;50.078;13.704;2023-08-17T06:31:02;22.88;;;16.60;;
56893;SDS011;43392;50.078;13.704;2023-08-17T06:33:29;25.17;;;16.02;;
56893;SDS011;43392;50.078;13.704;2023-08-17T06:35:55;27.33;;;18.73;;
56893;SDS011;43392;50.078;13.704;2023-08-17T06:38:22;24.70;;;19.58;;
56893;SDS011;43392;50.078;13.704;2023-08-17T06:40:48;25.45;;;19.15;;
56893;SDS011;43392;50.078;13.704;2023-08-17T06:43:15;22.67;;;17.55;;
56893;SDS011;43392;50.078;13.704;2023-08-17T06:45:42;30.55;;;17.67;;
56893;SDS011;43392;50.078;13.704;2023-08-17T06:48:10;25.38;;;16.35;;
56893;SDS011;43392;50.078;13.704;2023-08-17T06:50:36;23.17;;;14.63;;
56893;SDS011;43392;50.078;13.704;2023-08-17T06:53:03;16.17;;;12.68;;
56893;SDS011;43392;50.078;13.704;2023-08-17T06:55:30;14.10;;;8.75;;
56893;SDS011;43392;50.078;13.704;2023-08-17T06:57:57;19.30;;;13.43;;
56893;SDS011;43392;50.078;13.704;2023-08-17T07:00:24;21.20;;;16.90;;
56893;SDS011;43392;50.078;13.704;2023-08-17T07:02:51;23.20;;;16.27;;
56893;SDS011;43392;50.078;13.704;2023-08-17T07:05:19;17.33;;;10.95;;
56893;SDS011;43392;50.078;13.704;2023-08-17T07:07:45;23.95;;;15.68;;
56893;SDS011;43392;50.078;13.704;2023-08-17T07:10:12;17.90;;;12.73;;
56893;SDS011;43392;50.078;13.704;2023-08-17T07:12:39;16.10;;;11.60;;
56893;SDS011;43392;50.078;13.704;2023-08-17T07:15:06;19.13;;;12.73;;
56893;SDS011;43392;50.078;13.704;2023-08-17T07:17:33;18.60;;;10.30;;
56893;SDS011;43392;50.078;13.704;2023-08-17T07:20:01;18.27;;;12.85;;
56893;SDS011;43392;50.078;13.704;2023-08-17T07:22:30;19.00;;;12.80;;
56893;SDS011;43392;50.078;13.704;2023-08-17T07:24:57;19.45;;;13.60;;
56893;SDS011;43392;50.078;13.704;2023-08-17T07:27:23;18.48;;;13.13;;
56893;SDS011;43392;50.078;13.704;2023-08-17T07:29:50;19.88;;;13.05;;
56893;SDS011;43392;50.078;13.704;2023-08-17T07:32:17;17.33;;;13.05;;
56893;SDS011;43392;50.078;13.704;2023-08-17T07:34:46;19.77;;;13.93;;
56893;SDS011;43392;50.078;13.704;2023-08-17T07:37:12;18.55;;;12.05;;
56893;SDS011;43392;50.078;13.704;2023-08-17T07:39:40;13.85;;;11.63;;
56893;SDS011;43392;50.078;13.704;2023-08-17T07:42:07;18.50;;;13.75;;
56893;SDS011;43392;50.078;13.704;2023-08-17T07:44:33;15.65;;;10.40;;
56893;SDS011;43392;50.078;13.704;2023-08-17T07:47:00;15.98;;;10.93;;
56893;SDS011;43392;50.078;13.704;2023-08-17T07:49:27;18.38;;;11.02;;
56893;SDS011;43392;50.078;13.704;2023-08-17T07:51:54;17.85;;;11.98;;
56893;SDS011;43392;50.078;13.704;2023-08-17T07:54:21;17.08;;;13.02;;
56893;SDS011;43392;50.078;13.704;2023-08-17T07:56:49;15.60;;;11.50;;
56893;SDS011;43392;50.078;13.704;2023-08-17T07:59:15;15.93;;;10.77;;
56893;SDS011;43392;50.078;13.704;2023-08-17T08:01:42;13.50;;;10.15;;
56893;SDS011;43392;50.078;13.704;2023-08-17T08:04:09;14.07;;;10.35;;
56893;SDS011;43392;50.078;13.704;2023-08-17T08:06:35;13.60;;;10.40;;
56893;SDS011;43392;50.078;13.704;2023-08-17T08:09:02;17.25;;;10.77;;
56893;SDS011;43392;50.078;13.704;2023-08-17T08:11:29;14.48;;;10.50;;
56893;SDS011;43392;50.078;13.704;2023-08-17T08:13:57;15.27;;;10.27;;
56893;SDS011;43392;50.078;13.704;2023-08-17T08:16:23;18.88;;;10.77;;
56893;SDS011;43392;50.078;13.704;2023-08-17T08:18:50;14.15;;;10.18;;
56893;SDS011;43392;50.078;13.704;2023-08-17T08:21:17;12.15;;;9.10;;
56893;SDS011;43392;50.078;13.704;2023-08-17T08:23:43;12.65;;;9.35;;
56893;SDS011;43392;50.078;13.704;2023-08-17T08:26:10;16.88;;;10.98;;
56893;SDS011;43392;50.078;13.704;2023-08-17T08:28:36;11.73;;;9.60;;
56893;SDS011;43392;50.078;13.704;2023-08-17T08:31:04;14.52;;;9.75;;
56893;SDS011;43392;50.078;13.704;2023-08-17T08:33:31;11.43;;;9.20;;
56893;SDS011;43392;50.078;13.704;2023-08-17T08:35:58;11.80;;;8.88;;
56893;SDS011;43392;50.078;13.704;2023-08-17T08:38:24;13.80;;;10.20;;
56893;SDS011;43392;50.078;13.704;2023-08-17T08:40:51;13.23;;;10.40;;
56893;SDS011;43392;50.078;13.704;2023-08-17T08:43:18;13.20;;;10.32;;
56893;SDS011;43392;50.078;13.704;2023-08-17T08:45:45;12.55;;;8.90;;
56893;SDS011;43392;50.078;13.704;2023-08-17T08:48:15;18.17;;;12.43;;
56893;SDS011;43392;50.078;13.704;2023-08-17T08:50:45;14.20;;;11.63;;
56893;SDS011;43392;50.078;13.704;2023-08-17T08:53:14;17.90;;;12.20;;
56893;SDS011;43392;50.078;13.704;2023-08-17T08:55:44;19.73;;;11.77;;
56893;SDS011;43392;50.078;13.704;2023-08-17T08:58:15;20.42;;;11.05;;
56893;SDS011;43392;50.078;13.704;2023-08-17T09:00:46;16.77;;;11.20;;
56893;SDS011;43392;50.078;13.704;2023-08-17T09:03:13;13.30;;;10.02;;
56893;SDS011;43392;50.078;13.704;2023-08-17T09:05:44;13.00;;;9.57;;
56893;SDS011;43392;50.078;13.704;2023-08-17T09:08:13;16.92;;;10.65;;
56893;SDS011;43392;50.078;13.704;2023-08-17T09:10:41;16.65;;;10.50;;
56893;SDS011;43392;50.078;13.704;2023-08-17T09:13:08;16.05;;;10.48;;
56893;SDS011;43392;50.078;13.704;2023-08-17T09:15:34;15.25;;;11.05;;
56893;SDS011;43392;50.078;13.704;2023-08-17T09:18:01;13.30;;;9.77;;
56893;SDS011;43392;50.078;13.704;2023-08-17T09:20:36;13.27;;;9.55;;
56893;SDS011;43392;50.078;13.704;2023-08-17T09:23:06;13.57;;;10.02;;
56893;SDS011;43392;50.078;13.704;2023-08-17T09:25:38;18.90;;;11.07;;
56893;SDS011;43392;50.078;13.704;2023-08-17T09:28:08;14.50;;;10.55;;
56893;SDS011;43392;50.078;13.704;2023-08-17T09:30:52;17.83;;;10.00;;
56893;SDS011;43392;50.078;13.704;2023-08-17T09:33:20;11.55;;;9.80;;
56893;SDS011;43392;50.078;13.704;2023-08-17T09:35:50;12.02;;;10.40;;
56893;SDS011;43392;50.078;13.704;2023-08-17T09:38:17;17.00;;;10.15;;
56893;SDS011;43392;50.078;13.704;2023-08-17T09:40:44;13.65;;;9.65;;
56893;SDS011;43392;50.078;13.704;2023-08-17T09:43:11;14.75;;;9.50;;
56893;SDS011;43392;50.078;13.704;2023-08-17T09:45:39;14.50;;;9.13;;
56893;SDS011;43392;50.078;13.704;2023-08-17T09:48:06;12.90;;;9.02;;
56893;SDS011;43392;50.078;13.704;2023-08-17T09:50:34;14.45;;;8.90;;
56893;SDS011;43392;50.078;13.704;2023-08-17T09:53:02;14.25;;;8.63;;
56893;SDS011;43392;50.078;13.704;2023-08-17T09:55:29;13.18;;;9.20;;
56893;SDS011;43392;50.078;13.704;2023-08-17T09:57:56;13.02;;;9.13;;
56893;SDS011;43392;50.078;13.704;2023-08-17T10:00:24;11.15;;;9.48;;
56893;SDS011;43392;50.078;13.704;2023-08-17T10:02:51;13.77;;;8.60;;
56893;SDS011;43392;50.078;13.704;2023-08-17T10:05:19;11.23;;;8.77;;
56893;SDS011;43392;50.078;13.704;2023-08-17T10:07:47;13.45;;;8.70;;
56893;SDS011;43392;50.078;13.704;2023-08-17T10:10:21;13.73;;;7.78;;
56893;SDS011;43392;50.078;13.704;2023-08-17T10:12:53;10.18;;;7.10;;
56893;SDS011;43392;50.078;13.704;2023-08-17T10:15:25;10.45;;;6.53;;
56893;SDS011;43392;50.078;13.704;2023-08-17T10:17:58;9.23;;;6.80;;
56893;SDS011;43392;50.078;13.704;2023-08-17T10:20:34;11.65;;;6.65;;
56893;SDS011;43392;50.078;13.704;2023-08-17T10:23:05;10.68;;;7.20;;
56893;SDS011;43392;50.078;13.704;2023-08-17T10:25:39;12.55;;;6.85;;
56893;SDS011;43392;50.078;13.704;2023-08-17T10:28:07;9.77;;;6.53;;
56893;SDS011;43392;50.078;13.704;2023-08-17T10:30:35;12.38;;;6.85;;
56893;SDS011;43392;50.078;13.704;2023-08-17T10:33:02;13.40;;;6.80;;
56893;SDS011;43392;50.078;13.704;2023-08-17T10:35:31;8.18;;;5.88;;
56893;SDS011;43392;50.078;13.704;2023-08-17T10:37:59;14.13;;;7.45;;
56893;SDS011;43392;50.078;13.704;2023-08-17T10:40:27;9.35;;;6.85;;
56893;SDS011;43392;50.078;13.704;2023-08-17T10:42:55;10.38;;;6.15;;
56893;SDS011;43392;50.078;13.704;2023-08-17T10:45:25;8.32;;;6.40;;
56893;SDS011;43392;50.078;13.704;2023-08-17T10:47:59;8.77;;;6.72;;
56893;SDS011;43392;50.078;13.704;2023-08-17T10:50:26;12.07;;;7.18;;
56893;SDS011;43392;50.078;13.704;2023-08-17T10:52:53;11.90;;;7.30;;
56893;SDS011;43392;50.078;13.704;2023-08-17T10:55:34;10.60;;;6.80;;
56893;SDS011;43392;50.078;13.704;2023-08-17T10:58:03;11.02;;;7.05;;
56893;SDS011;43392;50.078;13.704;2023-08-17T11:00:32;8.57;;;6.32;;
56893;SDS011;43392;50.078;13.704;2023-08-17T11:03:02;10.32;;;7.00;;
56893;SDS011;43392;50.078;13.704;2023-08-17T11:05:41;10.45;;;6.63;;
56893;SDS011;43392;50.078;13.704;2023-08-17T11:08:09;8.75;;;6.38;;
56893;SDS011;43392;50.078;13.704;2023-08-17T11:10:39;11.65;;;6.65;;
56893;SDS011;43392;50.078;13.704;2023-08-17T11:13:08;11.73;;;6.50;;
56893;SDS011;43392;50.078;13.704;2023-08-17T11:15:36;10.40;;;6.80;;
56893;SDS011;43392;50.078;13.704;2023-08-17T11:18:04;8.95;;;6.35;;
56893;SDS011;43392;50.078;13.704;2023-08-17T11:20:32;8.52;;;6.32;;
56893;SDS011;43392;50.078;13.704;2023-08-17T11:22:59;10.48;;;6.65;;
56893;SDS011;43392;50.078;13.704;2023-08-17T11:25:25;10.52;;;6.55;;
56893;SDS011;43392;50.078;13.704;2023-08-17T11:27:52;10.35;;;6.65;;
56893;SDS011;43392;50.078;13.704;2023-08-17T11:30:21;10.10;;;6.53;;
56893;SDS011;43392;50.078;13.704;2023-08-17T11:32:48;9.05;;;5.78;;
56893;SDS011;43392;50.078;13.704;2023-08-17T11:35:15;12.00;;;6.43;;
56893;SDS011;43392;50.078;13.704;2023-08-17T11:37:41;9.00;;;5.93;;
56893;SDS011;43392;50.078;13.704;2023-08-17T11:40:09;8.63;;;6.15;;
56893;SDS011;43392;50.078;13.704;2023-08-17T11:42:36;8.10;;;6.32;;
56893;SDS011;43392;50.078;13.704;2023-08-17T11:45:04;10.15;;;6.22;;
56893;SDS011;43392;50.078;13.704;2023-08-17T11:47:33;18.63;;;6.45;;
56893;SDS011;43392;50.078;13.704;2023-08-17T11:50:00;9.70;;;6.03;;
56893;SDS011;43392;50.078;13.704;2023-08-17T11:52:27;11.13;;;6.28;;
56893;SDS011;43392;50.078;13.704;2023-08-17T11:54:57;10.20;;;5.55;;
56893;SDS011;43392;50.078;13.704;2023-08-17T11:57:24;9.35;;;5.75;;
56893;SDS011;43392;50.078;13.704;2023-08-17T11:59:52;7.47;;;5.10;;
56893;SDS011;43392;50.078;13.704;2023-08-17T12:02:19;7.90;;;5.15;;
56893;SDS011;43392;50.078;13.704;2023-08-17T12:04:48;11.05;;;5.93;;
56893;SDS011;43392;50.078;13.704;2023-08-17T12:07:16;10.40;;;6.28;;
56893;SDS011;43392;50.078;13.704;2023-08-17T12:09:43;8.63;;;5.70;;
56893;SDS011;43392;50.078;13.704;2023-08-17T12:12:10;7.68;;;5.10;;
56893;SDS011;43392;50.078;13.704;2023-08-17T12:14:40;11.63;;;5.80;;
56893;SDS011;43392;50.078;13.704;2023-08-17T12:17:08;7.90;;;4.93;;
56893;SDS011;43392;50.078;13.704;2023-08-17T12:19:40;8.25;;;5.10;;
56893;SDS011;43392;50.078;13.704;2023-08-17T12:22:08;12.15;;;5.90;;
56893;SDS011;43392;50.078;13.704;2023-08-17T12:24:35;10.57;;;5.38;;
56893;SDS011;43392;50.078;13.704;2023-08-17T12:27:03;10.13;;;5.20;;
56893;SDS011;43392;50.078;13.704;2023-08-17T12:29:31;11.25;;;5.20;;
56893;SDS011;43392;50.078;13.704;2023-08-17T12:31:58;7.22;;;4.82;;
56893;SDS011;43392;50.078;13.704;2023-08-17T12:34:25;12.30;;;5.68;;
56893;SDS011;43392;50.078;13.704;2023-08-17T12:36:51;8.18;;;5.07;;
56893;SDS011;43392;50.078;13.704;2023-08-17T12:39:19;7.50;;;5.20;;
56893;SDS011;43392;50.078;13.704;2023-08-17T12:41:46;7.50;;;5.32;;
56893;SDS011;43392;50.078;13.704;2023-08-17T12:44:12;9.32;;;4.75;;
56893;SDS011;43392;50.078;13.704;2023-08-17T12:46:39;9.23;;;5.20;;
56893;SDS011;43392;50.078;13.704;2023-08-17T12:49:06;6.97;;;4.38;;
56893;SDS011;43392;50.078;13.704;2023-08-17T12:51:33;7.13;;;4.45;;
56893;SDS011;43392;50.078;13.704;2023-08-17T12:54:00;7.43;;;4.70;;
56893;SDS011;43392;50.078;13.704;2023-08-17T12:56:28;7.43;;;4.35;;
56893;SDS011;43392;50.078;13.704;2023-08-17T12:58:54;8.32;;;4.88;;
56893;SDS011;43392;50.078;13.704;2023-08-17T13:01:21;10.63;;;5.05;;
56893;SDS011;43392;50.078;13.704;2023-08-17T13:03:47;6.07;;;4.68;;
56893;SDS011;43392;50.078;13.704;2023-08-17T13:06:14;8.05;;;5.65;;
56893;SDS011;43392;50.078;13.704;2023-08-17T13:08:41;7.43;;;4.88;;
56893;SDS011;43392;50.078;13.704;2023-08-17T13:11:07;8.05;;;5.10;;
56893;SDS011;43392;50.078;13.704;2023-08-17T13:13:35;8.30;;;5.10;;
56893;SDS011;43392;50.078;13.704;2023-08-17T13:16:02;10.15;;;5.18;;
56893;SDS011;43392;50.078;13.704;2023-08-17T13:18:29;8.10;;;4.85;;
56893;SDS011;43392;50.078;13.704;2023-08-17T13:20:55;10.23;;;5.07;;
56893;SDS011;43392;50.078;13.704;2023-08-17T13:23:22;8.25;;;4.97;;
56893;SDS011;43392;50.078;13.704;2023-08-17T13:25:49;7.35;;;4.70;;
56893;SDS011;43392;50.078;13.704;2023-08-17T13:28:15;8.50;;;4.78;;
56893;SDS011;43392;50.078;13.704;2023-08-17T13:30:43;7.75;;;4.75;;
56893;SDS011;43392;50.078;13.704;2023-08-17T13:33:10;7.68;;;4.53;;
56893;SDS011;43392;50.078;13.704;2023-08-17T13:35:37;9.25;;;4.60;;
56893;SDS011;43392;50.078;13.704;2023-08-17T13:38:04;8.48;;;4.72;;
56893;SDS011;43392;50.078;13.704;2023-08-17T13:40:31;6.93;;;4.05;;
56893;SDS011;43392;50.078;13.704;2023-08-17T13:42:58;6.82;;;4.22;;
56893;SDS011;43392;50.078;13.704;2023-08-17T13:45:26;7.38;;;4.53;;
56893;SDS011;43392;50.078;13.704;2023-08-17T13:47:54;8.32;;;4.30;;
56893;SDS011;43392;50.078;13.704;2023-08-17T13:50:20;7.78;;;4.72;;
56893;SDS011;43392;50.078;13.704;2023-08-17T13:52:47;7.35;;;4.05;;
56893;SDS011;43392;50.078;13.704;2023-08-17T13:55:14;7.90;;;4.45;;
56893;SDS011;43392;50.078;13.704;2023-08-17T13:57:40;6.97;;;4.57;;
56893;SDS011;43392;50.078;13.704;2023-08-17T14:00:07;8.13;;;4.63;;
56893;SDS011;43392;50.078;13.704;2023-08-17T14:02:35;8.07;;;4.63;;
56893;SDS011;43392;50.078;13.704;2023-08-17T14:05:03;9.90;;;4.47;;
56893;SDS011;43392;50.078;13.704;2023-08-17T14:07:30;9.10;;;4.50;;
56893;SDS011;43392;50.078;13.704;2023-08-17T14:09:57;7.40;;;4.18;;
56893;SDS011;43392;50.078;13.704;2023-08-17T14:12:23;6.18;;;4.05;;
56893;SDS011;43392;50.078;13.704;2023-08-17T14:14:50;7.07;;;4.60;;
56893;SDS011;43392;50.078;13.704;2023-08-17T14:17:17;5.88;;;4.05;;